sensor_id;sensor_type;location;lat;lon;timestamp;P1;durP1;ratioP1;P2;durP2;ratioP2
57535;SDS011;43361;49.790;8.960;2022-08-02T00:00:33;1.70;;;1.23;;
57535;SDS011;43361;49.790;8.960;2022-08-02T00:10:34;1.58;;;0.90;;
57535;SDS011;43361;49.790;8.960;2022-08-02T00:20:36;4.20;;;1.10;;
57535;SDS011;43361;49.790;8.960;2022-08-02T00:30:36;2.55;;;1.45;;
57535;SDS011;43361;49.790;8.960;2022-08-02T00:40:38;1.73;;;0.95;;
57535;SDS011;43361;49.790;8.960;2022-08-02T00:50:39;2.33;;;1.48;;
57535;SDS011;43361;49.790;8.960;2022-08-02T01:00:41;1.65;;;1.30;;
57535;SDS011;43361;49.790;8.960;2022-08-02T01:10:41;2.42;;;1.30;;
57535;SDS011;43361;49.790;8.960;2022-08-02T01:20:48;1.27;;;1.00;;
57535;SDS011;43361;49.790;8.960;2022-08-02T01:30:59;1.40;;;1.05;;
57535;SDS011;43361;49.790;8.960;2022-08-02T01:41:00;1.63;;;1.10;;
57535;SDS011;43361;49.790;8.960;2022-08-02T01:51:02;1.23;;;1.02;;
57535;SDS011;43361;49.790;8.960;2022-08-02T02:01:04;2.17;;;1.20;;
57535;SDS011;43361;49.790;8.960;2022-08-02T02:11:06;1.10;;;0.95;;
57535;SDS011;43361;49.790;8.960;2022-08-02T02:21:07;1.55;;;1.05;;
57535;SDS011;43361;49.790;8.960;2022-08-02T02:31:11;1.90;;;1.23;;
57535;SDS011;43361;49.790;8.960;2022-08-02T02:41:12;1.75;;;1.38;;
57535;SDS011;43361;49.790;8.960;2022-08-02T02:51:16;1.50;;;1.30;;
57535;SDS011;43361;49.790;8.960;2022-08-02T03:01:17;1.60;;;1.15;;
57535;SDS011;43361;49.790;8.960;2022-08-02T03:11:28;1.50;;;1.20;;
57535;SDS011;43361;49.790;8.960;2022-08-02T03:21:29;1.75;;;1.20;;
57535;SDS011;43361;49.790;8.960;2022-08-02T03:31:31;1.85;;;1.20;;
57535;SDS011;43361;49.790;8.960;2022-08-02T03:41:32;1.42;;;1.00;;
57535;SDS011;43361;49.790;8.960;2022-08-02T03:51:34;1.25;;;1.10;;
57535;SDS011;43361;49.790;8.960;2022-08-02T04:01:34;1.95;;;1.20;;
57535;SDS011;43361;49.790;8.960;2022-08-02T04:11:36;1.10;;;0.90;;
57535;SDS011;43361;49.790;8.960;2022-08-02T04:21:38;1.70;;;1.50;;
57535;SDS011;43361;49.790;8.960;2022-08-02T04:31:40;1.90;;;1.33;;
57535;SDS011;43361;49.790;8.960;2022-08-02T04:41:42;1.60;;;1.10;;
57535;SDS011;43361;49.790;8.960;2022-08-02T04:51:43;2.28;;;1.00;;
57535;SDS011;43361;49.790;8.960;2022-08-02T05:01:44;1.23;;;0.95;;
57535;SDS011;43361;49.790;8.960;2022-08-02T05:11:46;1.77;;;1.20;;
57535;SDS011;43361;49.790;8.960;2022-08-02T05:21:46;1.75;;;1.10;;
57535;SDS011;43361;49.790;8.960;2022-08-02T05:31:48;1.20;;;1.02;;
57535;SDS011;43361;49.790;8.960;2022-08-02T05:41:48;1.42;;;1.10;;
57535;SDS011;43361;49.790;8.960;2022-08-02T05:51:51;1.40;;;1.02;;
57535;SDS011;43361;49.790;8.960;2022-08-02T06:01:55;2.33;;;1.08;;
57535;SDS011;43361;49.790;8.960;2022-08-02T06:11:58;1.30;;;0.95;;
57535;SDS011;43361;49.790;8.960;2022-08-02T06:22:01;1.17;;;1.08;;
57535;SDS011;43361;49.790;8.960;2022-08-02T06:32:16;3.20;;;1.60;;
57535;SDS011;43361;49.790;8.960;2022-08-02T06:42:19;3.35;;;2.60;;
57535;SDS011;43361;49.790;8.960;2022-08-02T06:52:23;4.63;;;2.20;;
57535;SDS011;43361;49.790;8.960;2022-08-02T07:02:24;9.98;;;2.95;;
57535;SDS011;43361;49.790;8.960;2022-08-02T07:12:26;9.18;;;3.42;;
57535;SDS011;43361;49.790;8.960;2022-08-02T07:22:27;25.80;;;7.13;;
57535;SDS011;43361;49.790;8.960;2022-08-02T07:32:29;5.85;;;2.45;;
57535;SDS011;43361;49.790;8.960;2022-08-02T07:42:30;15.10;;;2.22;;
57535;SDS011;43361;49.790;8.960;2022-08-02T07:52:32;3.38;;;1.30;;
57535;SDS011;43361;49.790;8.960;2022-08-02T08:02:33;6.13;;;1.20;;
57535;SDS011;43361;49.790;8.960;2022-08-02T08:12:34;9.93;;;1.50;;
57535;SDS011;43361;49.790;8.960;2022-08-02T08:22:35;8.98;;;2.10;;
57535;SDS011;43361;49.790;8.960;2022-08-02T08:32:37;6.18;;;2.00;;
57535;SDS011;43361;49.790;8.960;2022-08-02T08:42:37;10.82;;;2.72;;
57535;SDS011;43361;49.790;8.960;2022-08-02T08:52:40;6.15;;;1.73;;
57535;SDS011;43361;49.790;8.960;2022-08-02T09:02:41;6.13;;;2.25;;
57535;SDS011;43361;49.790;8.960;2022-08-02T09:12:43;4.95;;;1.90;;
57535;SDS011;43361;49.790;8.960;2022-08-02T09:22:44;5.35;;;1.77;;
57535;SDS011;43361;49.790;8.960;2022-08-02T09:32:45;6.90;;;1.52;;
57535;SDS011;43361;49.790;8.960;2022-08-02T09:42:56;5.95;;;1.80;;
57535;SDS011;43361;49.790;8.960;2022-08-02T09:52:58;5.05;;;2.30;;
57535;SDS011;43361;49.790;8.960;2022-08-02T10:03:05;3.50;;;1.88;;
57535;SDS011;43361;49.790;8.960;2022-08-02T10:13:07;3.90;;;1.85;;
57535;SDS011;43361;49.790;8.960;2022-08-02T10:23:08;10.98;;;2.40;;
57535;SDS011;43361;49.790;8.960;2022-08-02T10:33:11;15.07;;;3.20;;
57535;SDS011;43361;49.790;8.960;2022-08-02T10:43:12;8.10;;;2.25;;
57535;SDS011;43361;49.790;8.960;2022-08-02T10:53:34;15.15;;;2.78;;
57535;SDS011;43361;49.790;8.960;2022-08-02T11:03:37;6.82;;;2.28;;
57535;SDS011;43361;49.790;8.960;2022-08-02T11:23:55;13.02;;;2.95;;
57535;SDS011;43361;49.790;8.960;2022-08-02T11:33:55;15.70;;;3.17;;
57535;SDS011;43361;49.790;8.960;2022-08-02T11:43:57;9.00;;;3.05;;
57535;SDS011;43361;49.790;8.960;2022-08-02T11:53:58;19.70;;;2.97;;
57535;SDS011;43361;49.790;8.960;2022-08-02T12:03:59;11.48;;;3.05;;
57535;SDS011;43361;49.790;8.960;2022-08-02T12:14:00;8.38;;;2.33;;
57535;SDS011;43361;49.790;8.960;2022-08-02T12:24:03;7.00;;;2.30;;
57535;SDS011;43361;49.790;8.960;2022-08-02T12:34:09;7.78;;;2.47;;
57535;SDS011;43361;49.790;8.960;2022-08-02T12:44:15;6.32;;;2.10;;
57535;SDS011;43361;49.790;8.960;2022-08-02T12:54:16;5.57;;;2.00;;
57535;SDS011;43361;49.790;8.960;2022-08-02T13:04:18;5.65;;;1.90;;
57535;SDS011;43361;49.790;8.960;2022-08-02T13:14:18;5.47;;;2.33;;
57535;SDS011;43361;49.790;8.960;2022-08-02T13:24:20;4.75;;;1.75;;
57535;SDS011;43361;49.790;8.960;2022-08-02T13:34:21;5.40;;;1.85;;
57535;SDS011;43361;49.790;8.960;2022-08-02T13:44:22;4.05;;;1.70;;
57535;SDS011;43361;49.790;8.960;2022-08-02T13:54:23;3.67;;;1.60;;
57535;SDS011;43361;49.790;8.960;2022-08-02T14:04:25;2.50;;;1.35;;
57535;SDS011;43361;49.790;8.960;2022-08-02T14:14:25;3.60;;;1.70;;
57535;SDS011;43361;49.790;8.960;2022-08-02T14:24:27;3.38;;;1.33;;
57535;SDS011;43361;49.790;8.960;2022-08-02T14:34:28;3.17;;;1.33;;
57535;SDS011;43361;49.790;8.960;2022-08-02T14:44:30;4.10;;;1.25;;
57535;SDS011;43361;49.790;8.960;2022-08-02T14:54:30;2.20;;;1.38;;
57535;SDS011;43361;49.790;8.960;2022-08-02T15:04:33;2.13;;;1.25;;
57535;SDS011;43361;49.790;8.960;2022-08-02T15:14:33;4.20;;;1.35;;
57535;SDS011;43361;49.790;8.960;2022-08-02T15:24:35;3.78;;;1.50;;
57535;SDS011;43361;49.790;8.960;2022-08-02T15:34:35;3.53;;;1.45;;
57535;SDS011;43361;49.790;8.960;2022-08-02T15:44:37;11.35;;;1.88;;
57535;SDS011;43361;49.790;8.960;2022-08-02T15:54:37;9.27;;;1.50;;
57535;SDS011;43361;49.790;8.960;2022-08-02T16:04:39;5.15;;;1.35;;
57535;SDS011;43361;49.790;8.960;2022-08-02T16:14:40;6.50;;;1.23;;
57535;SDS011;43361;49.790;8.960;2022-08-02T16:24:42;5.22;;;1.60;;
57535;SDS011;43361;49.790;8.960;2022-08-02T16:34:42;6.93;;;1.60;;
57535;SDS011;43361;49.790;8.960;2022-08-02T16:44:44;15.00;;;1.40;;
57535;SDS011;43361;49.790;8.960;2022-08-02T16:54:44;6.00;;;1.20;;
57535;SDS011;43361;49.790;8.960;2022-08-02T17:04:46;8.48;;;1.77;;
57535;SDS011;43361;49.790;8.960;2022-08-02T17:14:47;6.32;;;1.17;;
57535;SDS011;43361;49.790;8.960;2022-08-02T17:24:49;4.03;;;1.17;;
57535;SDS011;43361;49.790;8.960;2022-08-02T17:34:49;4.82;;;1.40;;
57535;SDS011;43361;49.790;8.960;2022-08-02T17:44:52;5.43;;;1.15;;
57535;SDS011;43361;49.790;8.960;2022-08-02T17:54:52;7.57;;;1.40;;
57535;SDS011;43361;49.790;8.960;2022-08-02T18:04:54;8.48;;;1.30;;
57535;SDS011;43361;49.790;8.960;2022-08-02T18:14:54;9.25;;;1.23;;
57535;SDS011;43361;49.790;8.960;2022-08-02T18:24:56;3.00;;;1.17;;
57535;SDS011;43361;49.790;8.960;2022-08-02T18:34:57;6.63;;;1.30;;
57535;SDS011;43361;49.790;8.960;2022-08-02T18:45:00;4.40;;;1.20;;
57535;SDS011;43361;49.790;8.960;2022-08-02T18:55:01;9.23;;;1.65;;
57535;SDS011;43361;49.790;8.960;2022-08-02T19:05:03;6.93;;;1.25;;
57535;SDS011;43361;49.790;8.960;2022-08-02T19:15:04;4.75;;;1.10;;
57535;SDS011;43361;49.790;8.960;2022-08-02T19:25:06;6.32;;;1.67;;
57535;SDS011;43361;49.790;8.960;2022-08-02T19:35:07;9.68;;;1.38;;
57535;SDS011;43361;49.790;8.960;2022-08-02T19:45:10;7.03;;;1.65;;
57535;SDS011;43361;49.790;8.960;2022-08-02T19:55:12;8.27;;;1.52;;
57535;SDS011;43361;49.790;8.960;2022-08-02T20:05:14;6.03;;;1.17;;
57535;SDS011;43361;49.790;8.960;2022-08-02T20:15:15;4.60;;;1.25;;
57535;SDS011;43361;49.790;8.960;2022-08-02T20:25:17;6.10;;;1.30;;
57535;SDS011;43361;49.790;8.960;2022-08-02T20:35:18;4.88;;;1.33;;
57535;SDS011;43361;49.790;8.960;2022-08-02T20:45:20;5.40;;;1.20;;
57535;SDS011;43361;49.790;8.960;2022-08-02T20:55:20;5.50;;;1.40;;
57535;SDS011;43361;49.790;8.960;2022-08-02T21:05:22;2.90;;;1.10;;
57535;SDS011;43361;49.790;8.960;2022-08-02T21:15:23;6.65;;;1.33;;
57535;SDS011;43361;49.790;8.960;2022-08-02T21:25:24;2.67;;;1.23;;
57535;SDS011;43361;49.790;8.960;2022-08-02T21:35:25;4.82;;;1.65;;
57535;SDS011;43361;49.790;8.960;2022-08-02T21:45:27;7.10;;;1.10;;
57535;SDS011;43361;49.790;8.960;2022-08-02T21:55:28;4.03;;;1.33;;
57535;SDS011;43361;49.790;8.960;2022-08-02T22:05:29;3.05;;;1.17;;
57535;SDS011;43361;49.790;8.960;2022-08-02T22:15:30;11.77;;;1.23;;
57535;SDS011;43361;49.790;8.960;2022-08-02T22:25:32;3.63;;;1.20;;
57535;SDS011;43361;49.790;8.960;2022-08-02T22:35:32;6.13;;;1.40;;
57535;SDS011;43361;49.790;8.960;2022-08-02T22:45:34;3.17;;;1.10;;
57535;SDS011;43361;49.790;8.960;2022-08-02T22:55:34;3.83;;;1.23;;
57535;SDS011;43361;49.790;8.960;2022-08-02T23:05:36;3.75;;;1.20;;
57535;SDS011;43361;49.790;8.960;2022-08-02T23:15:38;2.88;;;1.10;;
57535;SDS011;43361;49.790;8.960;2022-08-02T23:25:58;2.90;;;0.98;;
57535;SDS011;43361;49.790;8.960;2022-08-02T23:35:59;3.42;;;0.90;;
57535;SDS011;43361;49.790;8.960;2022-08-02T23:46:01;2.88;;;1.20;;
57535;SDS011;43361;49.790;8.960;2022-08-02T23:56:01;3.38;;;1.27;;
